createdAt,value
2023-03-11T00:01:29.438Z,101191.66
2023-03-11T00:06:36.128Z,101200.66
2023-03-11T00:11:39.236Z,101196.31
2023-03-11T00:16:42.405Z,101193.41
2023-03-11T00:21:46.988Z,101192.44
2023-03-11T00:26:50.163Z,101194.22
2023-03-11T00:31:53.380Z,101186.00
2023-03-11T00:36:57.944Z,101181.41
2023-03-11T00:42:01.320Z,101180.13
2023-03-11T00:47:04.540Z,101183.19
2023-03-11T00:52:09.164Z,101182.94
2023-03-11T00:57:12.328Z,101191.88
2023-03-11T01:02:15.477Z,101200.84
2023-03-11T01:07:20.028Z,101199.84
2023-03-11T01:12:23.189Z,101212.00
2023-03-11T01:17:26.351Z,101207.50
2023-03-11T01:22:30.960Z,101204.56
2023-03-11T01:27:34.103Z,101210.84
2023-03-11T01:32:37.346Z,101209.81
2023-03-11T01:37:42.165Z,101191.94
2023-03-11T01:42:45.069Z,101189.88
2023-03-11T01:47:48.185Z,101192.28
2023-03-11T01:52:52.796Z,101198.28
2023-03-11T01:57:56.633Z,101197.59
2023-03-11T02:03:03.348Z,101178.97
2023-03-11T02:08:09.147Z,101179.69
2023-03-11T02:13:13.016Z,101189.16
2023-03-11T02:18:18.695Z,101172.94
2023-03-11T02:23:28.929Z,101174.72
2023-03-11T02:28:36.130Z,101182.75
2023-03-11T02:33:39.639Z,101176.38
2023-03-11T02:38:42.776Z,101187.22
2023-03-11T02:43:48.206Z,101181.75
2023-03-11T02:48:52.541Z,101157.84
2023-03-11T02:54:01.078Z,101170.34
2023-03-11T02:59:05.664Z,101152.66
2023-03-11T03:04:08.913Z,101150.72
2023-03-11T03:09:12.236Z,101135.56
2023-03-11T03:14:16.834Z,101136.72
2023-03-11T03:19:20.081Z,101140.50
2023-03-11T03:24:23.220Z,101143.94
2023-03-11T03:29:27.854Z,101136.72
2023-03-11T03:34:30.996Z,101131.50
2023-03-11T03:39:34.312Z,101129.88
2023-03-11T03:44:38.857Z,101121.66
2023-03-11T03:49:42.049Z,101134.31
2023-03-11T03:54:45.289Z,101132.69
2023-03-11T03:59:49.833Z,101129.88
2023-03-11T04:04:53.079Z,101104.44
2023-03-11T04:09:56.191Z,101100.81
2023-03-11T04:15:00.796Z,101102.47
2023-03-11T04:20:04.479Z,101099.03
2023-03-11T04:25:08.766Z,101103.88
2023-03-11T04:30:14.574Z,101109.25
2023-03-11T04:35:17.806Z,101123.31
2023-03-11T04:40:21.280Z,101121.69
2023-03-11T04:45:25.813Z,101118.88
2023-03-11T04:50:28.987Z,101118.72
2023-03-11T04:55:33.541Z,101114.78
2023-03-11T05:00:38.255Z,101121.69
2023-03-11T05:05:41.481Z,101118.59
2023-03-11T05:10:44.700Z,101122.13
2023-03-11T05:15:49.911Z,101119.75
2023-03-11T05:20:53.644Z,101121.72
2023-03-11T05:25:56.922Z,101127.44
2023-03-11T05:31:01.707Z,101130.66
2023-03-11T05:36:05.930Z,101153.63
2023-03-11T05:41:09.188Z,101142.13
2023-03-11T05:46:14.263Z,101136.19
2023-03-11T05:51:17.526Z,101143.84
2023-03-11T05:56:22.468Z,101140.47
2023-03-11T06:01:27.320Z,101131.34
2023-03-11T06:06:30.583Z,101137.44
2023-03-11T06:11:33.976Z,101143.22
2023-03-11T06:16:38.719Z,101153.91
2023-03-11T06:21:41.725Z,101163.19
2023-03-11T06:26:45.317Z,101143.28
2023-03-11T06:31:50.000Z,101151.41
2023-03-11T06:36:54.946Z,101153.00
2023-03-11T06:41:57.920Z,101137.25
2023-03-11T06:47:03.840Z,101134.78
2023-03-11T06:52:07.783Z,101142.50
2023-03-11T06:57:12.017Z,101145.88
2023-03-11T07:02:18.141Z,101161.00
2023-03-11T07:07:21.645Z,101146.59
2023-03-11T07:12:25.663Z,101158.06
2023-03-11T07:17:30.312Z,101153.63
2023-03-11T07:22:33.561Z,101151.81
2023-03-11T07:27:36.870Z,101150.66
2023-03-11T07:32:42.742Z,101151.91
2023-03-11T07:37:46.004Z,101157.44
2023-03-11T07:42:49.264Z,101158.00
2023-03-11T07:47:54.103Z,101164.38
2023-03-11T07:52:57.078Z,101172.66
2023-03-11T07:58:00.319Z,101171.19
2023-03-11T08:03:04.996Z,101176.06
2023-03-11T08:08:08.312Z,101171.63
2023-03-11T08:13:11.536Z,101178.94
2023-03-11T08:18:17.068Z,101175.44
2023-03-11T08:23:20.420Z,101191.06
2023-03-11T08:28:23.711Z,101176.94
2023-03-11T08:33:28.700Z,101197.13
2023-03-11T08:38:32.163Z,101188.41
2023-03-11T08:43:36.081Z,101186.06
2023-03-11T08:48:40.853Z,101182.88
2023-03-11T08:53:44.184Z,101188.03
2023-03-11T08:58:47.872Z,101200.97
2023-03-11T09:03:52.771Z,101197.06
2023-03-11T09:08:56.069Z,101198.28
2023-03-11T09:13:59.334Z,101194.63
2023-03-11T09:19:07.503Z,101195.56
2023-03-11T09:24:10.849Z,101203.00
2023-03-11T09:29:14.113Z,101208.47
2023-03-11T09:34:18.819Z,101208.59
2023-03-11T09:39:21.802Z,101200.91
2023-03-11T09:44:32.845Z,101216.25
2023-03-11T09:49:50.188Z,101228.00
2023-03-11T09:54:57.100Z,101234.13
2023-03-11T10:00:03.646Z,101248.19
2023-03-11T10:05:15.309Z,101240.13
2023-03-11T10:10:19.666Z,101241.69
2023-03-11T10:15:31.340Z,101246.81
2023-03-11T10:20:47.062Z,101249.22
2023-03-11T10:26:00.177Z,101236.81
2023-03-11T10:31:09.039Z,101231.13
2023-03-11T10:36:17.453Z,101235.22
2023-03-11T10:41:25.253Z,101250.72
2023-03-11T10:46:30.524Z,101242.16
2023-03-11T10:51:36.600Z,101245.81
2023-03-11T10:56:41.825Z,101246.41
2023-03-11T11:01:56.496Z,101247.50
2023-03-11T11:07:20.788Z,101226.00
2023-03-11T11:12:23.927Z,101229.16
2023-03-11T11:17:31.476Z,101240.22
2023-03-11T11:22:36.731Z,101223.56
2023-03-11T11:27:39.905Z,101221.47
2023-03-11T11:32:43.269Z,101221.94
2023-03-11T11:37:49.917Z,101214.31
2023-03-11T11:42:56.921Z,101214.50
2023-03-11T11:48:04.498Z,101226.88
2023-03-11T11:53:20.645Z,101213.34
2023-03-11T11:58:24.135Z,101221.59
2023-03-11T12:03:53.856Z,101223.09
2023-03-11T12:09:08.625Z,101229.63
2023-03-11T12:14:16.167Z,101243.00
2023-03-11T12:19:26.991Z,101257.44
2023-03-11T12:24:51.523Z,101256.69
2023-03-11T12:29:57.726Z,101258.91
2023-03-11T12:35:05.663Z,101241.97
2023-03-11T12:40:57.546Z,101242.06
2023-03-11T12:46:02.576Z,101249.50
2023-03-11T12:51:06.461Z,101262.81
2023-03-11T12:56:18.433Z,101267.44
2023-03-11T13:01:41.970Z,101254.63
2023-03-11T13:07:08.352Z,101254.63
2023-03-11T13:12:44.076Z,101248.28
2023-03-11T13:18:00.365Z,101226.81
2023-03-11T13:23:22.530Z,101230.13
2023-03-11T13:28:51.161Z,101220.75
2023-03-11T13:33:57.748Z,101213.63
2023-03-11T13:39:31.805Z,101216.22
2023-03-11T13:44:38.048Z,101218.19
2023-03-11T13:49:46.536Z,101222.91
2023-03-11T13:54:55.332Z,101225.38
2023-03-11T13:59:59.426Z,101220.75
2023-03-11T14:05:08.179Z,101220.75
2023-03-11T14:10:23.153Z,101222.72
2023-03-11T14:15:28.081Z,101210.03
2023-03-11T14:20:32.777Z,101207.00
2023-03-11T14:25:36.827Z,101198.47
2023-03-11T14:30:40.120Z,101182.44
2023-03-11T15:12:50.012Z,101190.22
2023-03-11T15:17:57.834Z,101198.09
2023-03-11T15:23:03.141Z,101218.81
2023-03-11T15:28:32.518Z,101181.44
2023-03-11T15:33:35.675Z,101180.94
2023-03-11T15:38:38.891Z,101183.50
2023-03-11T15:43:48.458Z,101188.56
2023-03-11T15:48:51.625Z,101196.72
2023-03-11T15:53:54.773Z,101221.13
2023-03-11T15:58:59.541Z,101207.16
2023-03-11T16:04:02.912Z,101201.97
2023-03-11T16:09:06.394Z,101188.91
2023-03-11T16:14:17.023Z,101197.22
2023-03-11T16:19:20.236Z,101200.41
2023-03-11T16:24:26.564Z,101199.53
2023-03-11T16:29:31.223Z,101205.03
2023-03-11T16:34:34.286Z,101224.78
2023-03-11T16:39:38.923Z,101195.78
2023-03-11T16:44:43.334Z,101217.31
2023-03-11T16:49:46.549Z,101214.44
2023-03-11T16:54:50.401Z,101205.69
2023-03-11T16:59:55.106Z,101221.72
2023-03-11T17:04:58.173Z,101212.91
2023-03-11T17:10:01.814Z,101219.44
2023-03-11T17:15:08.640Z,101216.38
2023-03-11T17:20:13.339Z,101194.31
2023-03-11T17:30:37.180Z,101201.78
2023-03-11T17:35:41.118Z,101204.34
2023-03-11T17:40:44.326Z,101217.56
2023-03-11T17:45:48.951Z,101213.53
2023-03-11T17:50:51.979Z,101213.56
2023-03-11T17:55:55.160Z,101212.81
2023-03-11T18:01:00.541Z,101220.81
2023-03-11T18:06:05.889Z,101206.63
2023-03-11T18:11:11.316Z,101198.38
2023-03-11T18:16:18.287Z,101203.69
2023-03-11T18:21:23.870Z,101208.16
2023-03-11T18:26:29.960Z,101215.53
2023-03-11T18:31:34.732Z,101213.69
2023-03-11T18:36:38.654Z,101212.94
2023-03-11T18:41:42.978Z,101225.66
2023-03-11T18:46:47.652Z,101226.06
2023-03-11T18:51:50.596Z,101238.19
2023-03-11T18:56:53.898Z,101235.31
2023-03-11T19:01:58.537Z,101233.97
2023-03-11T19:07:01.803Z,101240.31
2023-03-11T19:12:05.334Z,101244.63
2023-03-11T19:17:10.068Z,101243.84
2023-03-11T19:22:13.325Z,101244.72
2023-03-11T19:27:16.566Z,101258.53
2023-03-11T19:32:21.240Z,101254.69
2023-03-11T19:37:24.215Z,101243.72
2023-03-11T19:42:27.430Z,101251.09
2023-03-11T19:47:32.117Z,101249.34
2023-03-11T19:52:36.314Z,101266.84
2023-03-11T19:57:39.682Z,101274.56
2023-03-11T20:02:44.925Z,101267.47
2023-03-11T20:07:48.307Z,101276.25
2023-03-11T20:13:01.796Z,101282.53
2023-03-11T20:18:08.271Z,101279.03
2023-03-11T20:23:11.599Z,101271.00
2023-03-11T20:28:15.008Z,101265.81
2023-03-11T20:33:19.751Z,101267.69
2023-03-11T20:38:22.747Z,101274.44
2023-03-11T20:43:26.111Z,101266.97
2023-03-11T20:48:31.780Z,101262.59
2023-03-11T20:53:35.721Z,101260.56
2023-03-11T20:58:39.782Z,101266.69
2023-03-11T21:03:45.159Z,101266.63
2023-03-11T21:08:49.430Z,101269.28
2023-03-11T21:13:53.174Z,101276.44
2023-03-11T21:18:57.979Z,101275.22
2023-03-11T21:24:01.126Z,101277.81
2023-03-11T21:29:04.972Z,101280.47
2023-03-11T21:34:11.995Z,101282.44
2023-03-11T21:39:15.530Z,101295.00
2023-03-11T21:44:19.180Z,101294.16
2023-03-11T21:49:24.304Z,101307.59
2023-03-11T21:54:27.763Z,101315.97
2023-03-11T21:59:31.492Z,101316.78
2023-03-11T22:04:36.253Z,101305.44
2023-03-11T22:09:39.480Z,101319.06
2023-03-11T22:14:42.827Z,101307.19
2023-03-11T22:19:47.800Z,101310.19
2023-03-11T22:24:51.061Z,101302.03
2023-03-11T22:29:54.335Z,101308.38
2023-03-11T22:34:59.031Z,101301.47
2023-03-11T22:40:02.258Z,101304.31
2023-03-11T22:45:06.457Z,101305.31
2023-03-11T22:50:12.345Z,101306.78
2023-03-11T22:55:15.616Z,101287.41
2023-03-11T23:00:21.219Z,101289.50
2023-03-11T23:05:25.963Z,101279.84
2023-03-11T23:10:29.177Z,101267.03
2023-03-11T23:15:32.511Z,101271.63
2023-03-11T23:20:38.510Z,101264.31
2023-03-11T23:25:42.696Z,101261.50
2023-03-11T23:30:45.941Z,101255.06
2023-03-11T23:35:50.599Z,101260.97
2023-03-11T23:40:53.864Z,101255.31
2023-03-11T23:45:57.098Z,101245.84
2023-03-11T23:51:02.347Z,101252.50
2023-03-11T23:56:11.150Z,101246.97
